Burgtor — V2OR7 — position and weather

sailwx.info

Track history (hours):
 
Tides and Currents Weather Stations Pressure Air Temp Water Temp Dewpoint Dewpoint Depression Visibility Wind Speed Wind Dir Waves Ship Positions

Burgtor

Last reported at 2016-May-04 06:08 UTC. Time now 2016-May-04 17:23 UTC.
Position N 44°23' W 002°41'.

Length 87 m; draft 5.1 m.

Type: Cargo ship. MMSI: 304665000.

Date/timePositionNaut miles runAvg speedWind from/ knotsBaromVisibWave heightAir tempDewpointWater temp
2016-May-04 06:08N 44°23' W 002°41'13 7.5
2016-May-04 04:28N 44°34' W 002°49'313 6.3
2016-May-02 02:33N 49°47' W 003°24'7 6.9
2016-May-02 01:33N 49°50' W 003°14'9 7.1
2016-May-02 00:14N 49°55' W 003°02'5 7.7
2016-May-01 23:33N 49°58' W 002°55'101 8.2
2016-May-01 11:14N 50°27' W 000°24'6 9.4
2016-May-01 10:33N 50°29' W 000°15'10 9.6
2016-May-01 09:30N 50°32' E 000°01'9 9.6
2016-May-01 08:33N 50°35' E 000°14'43 8.5
2016-May-01 03:26N 50°57' E 001°13'8 8.8
2016-May-01 02:33N 51°02' E 001°23'1010.4
2016-May-01 01:33N 51°08' E 001°36'1010.1
2016-May-01 00:33N 51°16' E 001°47'10 9.5
2016-Apr-30 23:33N 51°24' E 001°53'9 8.7
2016-Apr-30 22:33N 51°31' E 002°02'162 7.4
2016-Apr-30 00:33N 53°32' E 004°58'4 4.4
2016-Apr-29 23:33N 53°34' E 005°05'5 4.8
2016-Apr-29 22:33N 53°36' E 005°12'4 4.3
2016-Apr-29 21:33N 53°37' E 005°19'5 5.0
2016-Apr-29 20:33N 53°39' E 005°27'6 6.3
2016-Apr-29 19:33N 53°40' E 005°38'7 7.2
2016-Apr-29 18:33N 53°43' E 005°49'16 7.4
2016-Apr-29 16:27N 53°48' E 006°14'6 6.9
2016-Apr-29 15:32N 53°49' E 006°24'7 6.9
2016-Apr-29 14:33N 53°51' E 006°35'7 6.8
2016-Apr-29 13:33N 53°53' E 006°46'6 6.4
2016-Apr-29 12:33N 53°54' E 006°57'6 6.3
2016-Apr-29 11:33N 53°56' E 007°08'6 6.3
2016-Apr-29 10:33N 53°58' E 007°18'6 6.5
2016-Apr-29 09:34N 53°59' E 007°28'7 7.4
2016-Apr-29 08:33N 54°01' E 007°41'8 8.2
2016-Apr-29 07:33N 54°01' E 007°54'9 8.9
2016-Apr-29 06:33N 54°01' E 008°10'1010.1
2016-Apr-29 05:33N 53°59' E 008°26'9 8.7
2016-Apr-29 04:33N 53°56' E 008°40'7 6.9
2016-Apr-29 03:34N 53°51' E 008°48'6 6.3
2016-Apr-29 02:33N 53°51' E 008°58'6 6.2
2016-Apr-29 01:34N 53°53' E 009°08'8 8.1
2016-Apr-29 00:34N 53°50' E 009°21'1010.3
2016-Apr-28 23:33N 53°41' E 009°30'10 9.5
2016-Apr-28 22:33N 53°34' E 009°41'10 9.6
2016-Apr-28 21:33N 53°31' E 009°56'0 0.3
2016-Apr-28 20:32N 53°31' E 009°57'0 0.0
2016-Apr-28 19:32N 53°31' E 009°57'0 0.0
2016-Apr-28 18:32N 53°31' E 009°57'0 0.0
2016-Apr-28 17:32N 53°31' E 009°57'0 0.0
2016-Apr-28 16:32N 53°31' E 009°57'1 0.9
2016-Apr-28 15:33N 53°32' E 009°56'1 0.9
2016-Apr-28 14:33N 53°32' E 009°58'0 0.0
2016-Apr-28 13:33N 53°32' E 009°58'0 0.0
2016-Apr-28 12:33N 53°32' E 009°58'0 0.0
2016-Apr-28 11:30N 53°32' E 009°58'0 0.0
2016-Apr-28 10:33N 53°32' E 009°58'0 0.0
2016-Apr-28 09:33N 53°32' E 009°58'0 0.0
2016-Apr-28 08:33N 53°32' E 009°58'0 0.0
2016-Apr-28 07:33N 53°32' E 009°58'0 0.0
2016-Apr-28 06:33N 53°32' E 009°58'0 0.0
2016-Apr-28 05:33N 53°32' E 009°58'0 0.4
2016-Apr-28 04:34N 53°32' E 009°57'1 1.2
2016-Apr-28 03:33N 53°31' E 009°57'0 0.0
2016-Apr-28 02:30N 53°31' E 009°57'0 0.0
2016-Apr-28 01:33N 53°31' E 009°57'0 0.0
2016-Apr-28 00:33N 53°31' E 009°57'0 0.0
2016-Apr-27 23:33N 53°31' E 009°57'0 0.0
2016-Apr-27 22:33N 53°31' E 009°57'2 2.5
2016-Apr-27 21:33N 53°32' E 009°53'5 5.3
2016-Apr-27 20:34N 53°34' E 009°45'6 5.8
2016-Apr-27 19:33N 53°36' E 009°36'2 1.9
2016-Apr-27 18:33N 53°37' E 009°33'0 0.0
2016-Apr-27 17:33N 53°37' E 009°33'0 0.0
2016-Apr-27 16:33N 53°37' E 009°33'0 0.0
2016-Apr-27 15:33N 53°37' E 009°33'0 0.0
2016-Apr-27 14:33N 53°37' E 009°33'0 0.0
2016-Apr-27 13:33N 53°37' E 009°33'0 0.1
2016-Apr-27 12:33N 53°37' E 009°33'0 0.0
2016-Apr-27 11:33N 53°37' E 009°33'0 0.0
2016-Apr-27 10:33N 53°37' E 009°33'0 0.0
2016-Apr-27 09:33N 53°37' E 009°33'0 0.0
2016-Apr-27 08:33N 53°37' E 009°33'0 0.0
2016-Apr-27 07:33N 53°37' E 009°33'0 0.1
2016-Apr-27 06:33N 53°37' E 009°33'0 0.1
2016-Apr-27 05:33N 53°37' E 009°33'0 0.0
2016-Apr-27 04:33N 53°37' E 009°33'0 0.0
2016-Apr-27 03:33N 53°37' E 009°33'0 0.0
2016-Apr-27 02:33N 53°37' E 009°33'0 0.0
2016-Apr-27 01:33N 53°37' E 009°33'0 0.1
2016-Apr-27 00:33N 53°37' E 009°33'0 0.1
2016-Apr-26 23:33N 53°37' E 009°33'0 0.0
2016-Apr-26 22:27N 53°37' E 009°33'0 0.0
2016-Apr-26 21:30N 53°37' E 009°33'0 0.0
2016-Apr-26 20:30N 53°37' E 009°33'0 0.0
2016-Apr-26 19:32N 53°37' E 009°33'0 0.0
2016-Apr-26 18:32N 53°37' E 009°33'0 0.1
2016-Apr-26 17:32N 53°37' E 009°33'0 0.0
2016-Apr-26 16:29N 53°37' E 009°33'0 0.0
2016-Apr-26 15:23N 53°37' E 009°33'0 0.0
2016-Apr-26 14:29N 53°37' E 009°33'0 0.0
2016-Apr-26 13:32N 53°37' E 009°33'0 0.2
2016-Apr-26 12:32N 53°37' E 009°33'0 0.0
2016-Apr-26 11:32N 53°37' E 009°33'0 0.0
2016-Apr-26 10:32N 53°37' E 009°33'0 0.0
2016-Apr-26 09:32N 53°37' E 009°33'0 0.0
2016-Apr-26 08:32N 53°37' E 009°33'0 0.0
2016-Apr-26 07:32N 53°37' E 009°33'0 0.1
2016-Apr-26 06:32N 53°37' E 009°33'0 0.1
2016-Apr-26 05:32N 53°37' E 009°33'0 0.1
2016-Apr-26 04:29N 53°37' E 009°33'0 0.0
2016-Apr-26 03:32N 53°37' E 009°33'0 0.0
2016-Apr-26 02:32N 53°37' E 009°33'0 0.0
2016-Apr-26 01:32N 53°37' E 009°33'0 0.0
2016-Apr-26 00:32N 53°37' E 009°33'0 0.1
2016-Apr-25 23:32N 53°37' E 009°33'0 0.0
2016-Apr-25 22:32N 53°37' E 009°33'0 0.0
2016-Apr-25 21:29N 53°37' E 009°33'0 0.0
2016-Apr-25 20:29N 53°37' E 009°33'0 0.0
2016-Apr-25 19:32N 53°37' E 009°33'0 0.0
2016-Apr-25 18:32N 53°37' E 009°33'0 0.0
2016-Apr-25 17:32N 53°37' E 009°33'0 0.1
2016-Apr-25 16:32N 53°37' E 009°33'0 0.0
2016-Apr-25 15:29N 53°37' E 009°33'0 0.0
2016-Apr-25 14:29N 53°37' E 009°33'0 0.0
2016-Apr-25 13:29N 53°37' E 009°33'6 6.3
2016-Apr-25 12:33N 53°42' E 009°29'1111.3
2016-Apr-25 11:34N 53°51' E 009°18'10 9.9
2016-Apr-25 10:33N 53°51' E 009°01'8 8.1
2016-Apr-25 09:33N 53°50' E 008°48'7 6.7
2016-Apr-25 08:33N 53°55' E 008°40'7 6.7
2016-Apr-25 07:33N 53°58' E 008°30'8 7.6
2016-Apr-25 06:33N 53°59' E 008°17'9 9.0
2016-Apr-25 05:33N 53°58' E 008°02'8 7.8
2016-Apr-25 04:33N 53°57' E 007°49'8 8.4
2016-Apr-25 03:33N 53°54' E 007°35'8 8.5
2016-Apr-25 02:33N 53°52' E 007°21'9 8.8
2016-Apr-25 01:33N 53°50' E 007°07'9 8.6
2016-Apr-25 00:33N 53°48' E 006°52'9 9.1
2016-Apr-24 23:33N 53°46' E 006°37'10 9.8
2016-Apr-24 22:33N 53°44' E 006°21'1110.0
2016-Apr-24 21:29N 53°41' E 006°04'9 9.9
2016-Apr-24 20:33N 53°38' E 005°49'10 9.7
2016-Apr-24 19:33N 53°35' E 005°34'10 9.7
2016-Apr-24 18:33N 53°32' E 005°18'10 9.4
2016-Apr-24 17:30N 53°28' E 005°03'  
Track history (hours):
 
Tides and Currents Weather Stations Pressure Air Temp Water Temp Dewpoint Dewpoint Depression Visibility Wind Speed Wind Dir Waves Ship Positions

Burgtor

Last reported at 2016-May-04 06:08 UTC. Time now 2016-May-04 17:23 UTC.
Position N 44°23' W 002°41'.

Length 87 m; draft 5.1 m.

Type: Cargo ship. MMSI: 304665000.

Date/timePositionNaut miles runAvg speedWind from/ knotsBaromVisibWave heightAir tempDewpointWater temp
2016-May-04 06:08N 44°23' W 002°41'13 7.5
2016-May-04 04:28N 44°34' W 002°49'313 6.3
2016-May-02 02:33N 49°47' W 003°24'7 6.9
2016-May-02 01:33N 49°50' W 003°14'9 7.1
2016-May-02 00:14N 49°55' W 003°02'5 7.7
2016-May-01 23:33N 49°58' W 002°55'101 8.2
2016-May-01 11:14N 50°27' W 000°24'6 9.4
2016-May-01 10:33N 50°29' W 000°15'10 9.6
2016-May-01 09:30N 50°32' E 000°01'9 9.6
2016-May-01 08:33N 50°35' E 000°14'43 8.5
2016-May-01 03:26N 50°57' E 001°13'8 8.8
2016-May-01 02:33N 51°02' E 001°23'1010.4
2016-May-01 01:33N 51°08' E 001°36'1010.1
2016-May-01 00:33N 51°16' E 001°47'10 9.5
2016-Apr-30 23:33N 51°24' E 001°53'9 8.7
2016-Apr-30 22:33N 51°31' E 002°02'162 7.4
2016-Apr-30 00:33N 53°32' E 004°58'4 4.4
2016-Apr-29 23:33N 53°34' E 005°05'5 4.8
2016-Apr-29 22:33N 53°36' E 005°12'4 4.3
2016-Apr-29 21:33N 53°37' E 005°19'5 5.0
2016-Apr-29 20:33N 53°39' E 005°27'6 6.3
2016-Apr-29 19:33N 53°40' E 005°38'7 7.2
2016-Apr-29 18:33N 53°43' E 005°49'16 7.4
2016-Apr-29 16:27N 53°48' E 006°14'6 6.9
2016-Apr-29 15:32N 53°49' E 006°24'7 6.9
2016-Apr-29 14:33N 53°51' E 006°35'7 6.8
2016-Apr-29 13:33N 53°53' E 006°46'6 6.4
2016-Apr-29 12:33N 53°54' E 006°57'6 6.3
2016-Apr-29 11:33N 53°56' E 007°08'6 6.3
2016-Apr-29 10:33N 53°58' E 007°18'6 6.5
2016-Apr-29 09:34N 53°59' E 007°28'7 7.4
2016-Apr-29 08:33N 54°01' E 007°41'8 8.2
2016-Apr-29 07:33N 54°01' E 007°54'9 8.9
2016-Apr-29 06:33N 54°01' E 008°10'1010.1
2016-Apr-29 05:33N 53°59' E 008°26'9 8.7
2016-Apr-29 04:33N 53°56' E 008°40'7 6.9
2016-Apr-29 03:34N 53°51' E 008°48'6 6.3
2016-Apr-29 02:33N 53°51' E 008°58'6 6.2
2016-Apr-29 01:34N 53°53' E 009°08'8 8.1
2016-Apr-29 00:34N 53°50' E 009°21'1010.3
2016-Apr-28 23:33N 53°41' E 009°30'10 9.5
2016-Apr-28 22:33N 53°34' E 009°41'10 9.6
2016-Apr-28 21:33N 53°31' E 009°56'0 0.3
2016-Apr-28 20:32N 53°31' E 009°57'0 0.0
2016-Apr-28 19:32N 53°31' E 009°57'0 0.0
2016-Apr-28 18:32N 53°31' E 009°57'0 0.0
2016-Apr-28 17:32N 53°31' E 009°57'0 0.0
2016-Apr-28 16:32N 53°31' E 009°57'1 0.9
2016-Apr-28 15:33N 53°32' E 009°56'1 0.9
2016-Apr-28 14:33N 53°32' E 009°58'0 0.0
2016-Apr-28 13:33N 53°32' E 009°58'0 0.0
2016-Apr-28 12:33N 53°32' E 009°58'0 0.0
2016-Apr-28 11:30N 53°32' E 009°58'0 0.0
2016-Apr-28 10:33N 53°32' E 009°58'0 0.0
2016-Apr-28 09:33N 53°32' E 009°58'0 0.0
2016-Apr-28 08:33N 53°32' E 009°58'0 0.0
2016-Apr-28 07:33N 53°32' E 009°58'0 0.0
2016-Apr-28 06:33N 53°32' E 009°58'0 0.0
2016-Apr-28 05:33N 53°32' E 009°58'0 0.4
2016-Apr-28 04:34N 53°32' E 009°57'1 1.2
2016-Apr-28 03:33N 53°31' E 009°57'0 0.0
2016-Apr-28 02:30N 53°31' E 009°57'0 0.0
2016-Apr-28 01:33N 53°31' E 009°57'0 0.0
2016-Apr-28 00:33N 53°31' E 009°57'0 0.0
2016-Apr-27 23:33N 53°31' E 009°57'0 0.0
2016-Apr-27 22:33N 53°31' E 009°57'2 2.5
2016-Apr-27 21:33N 53°32' E 009°53'5 5.3
2016-Apr-27 20:34N 53°34' E 009°45'6 5.8
2016-Apr-27 19:33N 53°36' E 009°36'2 1.9
2016-Apr-27 18:33N 53°37' E 009°33'0 0.0
2016-Apr-27 17:33N 53°37' E 009°33'0 0.0
2016-Apr-27 16:33N 53°37' E 009°33'0 0.0
2016-Apr-27 15:33N 53°37' E 009°33'0 0.0
2016-Apr-27 14:33N 53°37' E 009°33'0 0.0
2016-Apr-27 13:33N 53°37' E 009°33'0 0.1
2016-Apr-27 12:33N 53°37' E 009°33'0 0.0
2016-Apr-27 11:33N 53°37' E 009°33'0 0.0
2016-Apr-27 10:33N 53°37' E 009°33'0 0.0
2016-Apr-27 09:33N 53°37' E 009°33'0 0.0
2016-Apr-27 08:33N 53°37' E 009°33'0 0.0
2016-Apr-27 07:33N 53°37' E 009°33'0 0.1
2016-Apr-27 06:33N 53°37' E 009°33'0 0.1
2016-Apr-27 05:33N 53°37' E 009°33'0 0.0
2016-Apr-27 04:33N 53°37' E 009°33'0 0.0
2016-Apr-27 03:33N 53°37' E 009°33'0 0.0
2016-Apr-27 02:33N 53°37' E 009°33'0 0.0
2016-Apr-27 01:33N 53°37' E 009°33'0 0.1
2016-Apr-27 00:33N 53°37' E 009°33'0 0.1
2016-Apr-26 23:33N 53°37' E 009°33'0 0.0
2016-Apr-26 22:27N 53°37' E 009°33'0 0.0
2016-Apr-26 21:30N 53°37' E 009°33'0 0.0
2016-Apr-26 20:30N 53°37' E 009°33'0 0.0
2016-Apr-26 19:32N 53°37' E 009°33'0 0.0
2016-Apr-26 18:32N 53°37' E 009°33'0 0.1
2016-Apr-26 17:32N 53°37' E 009°33'0 0.0
2016-Apr-26 16:29N 53°37' E 009°33'0 0.0
2016-Apr-26 15:23N 53°37' E 009°33'0 0.0
2016-Apr-26 14:29N 53°37' E 009°33'0 0.0
2016-Apr-26 13:32N 53°37' E 009°33'0 0.2
2016-Apr-26 12:32N 53°37' E 009°33'0 0.0
2016-Apr-26 11:32N 53°37' E 009°33'0 0.0
2016-Apr-26 10:32N 53°37' E 009°33'0 0.0
2016-Apr-26 09:32N 53°37' E 009°33'0 0.0
2016-Apr-26 08:32N 53°37' E 009°33'0 0.0
2016-Apr-26 07:32N 53°37' E 009°33'0 0.1
2016-Apr-26 06:32N 53°37' E 009°33'0 0.1
2016-Apr-26 05:32N 53°37' E 009°33'0 0.1
2016-Apr-26 04:29N 53°37' E 009°33'0 0.0
2016-Apr-26 03:32N 53°37' E 009°33'0 0.0
2016-Apr-26 02:32N 53°37' E 009°33'0 0.0
2016-Apr-26 01:32N 53°37' E 009°33'0 0.0
2016-Apr-26 00:32N 53°37' E 009°33'0 0.1
2016-Apr-25 23:32N 53°37' E 009°33'0 0.0
2016-Apr-25 22:32N 53°37' E 009°33'0 0.0
2016-Apr-25 21:29N 53°37' E 009°33'0 0.0
2016-Apr-25 20:29N 53°37' E 009°33'0 0.0
2016-Apr-25 19:32N 53°37' E 009°33'0 0.0
2016-Apr-25 18:32N 53°37' E 009°33'0 0.0
2016-Apr-25 17:32N 53°37' E 009°33'0 0.1
2016-Apr-25 16:32N 53°37' E 009°33'0 0.0
2016-Apr-25 15:29N 53°37' E 009°33'0 0.0
2016-Apr-25 14:29N 53°37' E 009°33'0 0.0
2016-Apr-25 13:29N 53°37' E 009°33'6 6.3
2016-Apr-25 12:33N 53°42' E 009°29'1111.3
2016-Apr-25 11:34N 53°51' E 009°18'10 9.9
2016-Apr-25 10:33N 53°51' E 009°01'8 8.1
2016-Apr-25 09:33N 53°50' E 008°48'7 6.7
2016-Apr-25 08:33N 53°55' E 008°40'7 6.7
2016-Apr-25 07:33N 53°58' E 008°30'8 7.6
2016-Apr-25 06:33N 53°59' E 008°17'9 9.0
2016-Apr-25 05:33N 53°58' E 008°02'8 7.8
2016-Apr-25 04:33N 53°57' E 007°49'8 8.4
2016-Apr-25 03:33N 53°54' E 007°35'8 8.5
2016-Apr-25 02:33N 53°52' E 007°21'9 8.8
2016-Apr-25 01:33N 53°50' E 007°07'9 8.6
2016-Apr-25 00:33N 53°48' E 006°52'9 9.1
2016-Apr-24 23:33N 53°46' E 006°37'10 9.8
2016-Apr-24 22:33N 53°44' E 006°21'1110.0
2016-Apr-24 21:29N 53°41' E 006°04'9 9.9
2016-Apr-24 20:33N 53°38' E 005°49'10 9.7
2016-Apr-24 19:33N 53°35' E 005°34'10 9.7
2016-Apr-24 18:33N 53°32' E 005°18'10 9.4
2016-Apr-24 17:30N 53°28' E 005°03'  

Dump ship's entire track history